createdAt,value
2023-05-07T00:01:20.482Z,8.58
2023-05-07T00:16:21.259Z,8.59
2023-05-07T00:31:21.667Z,8.63
2023-05-07T00:46:21.458Z,8.62
2023-05-07T01:01:22.557Z,8.68
2023-05-07T01:16:22.760Z,8.59
2023-05-07T01:31:23.823Z,8.71
2023-05-07T01:46:23.725Z,8.48
2023-05-07T02:01:24.219Z,8.48
2023-05-07T02:16:24.143Z,8.53
2023-05-07T02:31:25.264Z,8.50
2023-05-07T02:46:25.468Z,8.62
2023-05-07T03:01:25.322Z,8.47
2023-05-07T03:16:25.773Z,8.55
2023-05-07T03:31:25.584Z,8.48
2023-05-07T03:46:25.794Z,8.52
2023-05-07T04:01:26.662Z,8.53
2023-05-07T04:16:26.410Z,8.62
2023-05-07T04:31:26.843Z,8.76
2023-05-07T04:46:26.931Z,8.95
2023-05-07T05:01:27.093Z,9.05
2023-05-07T05:16:28.335Z,9.08
2023-05-07T05:31:28.629Z,9.42
2023-05-07T05:46:28.739Z,9.87
2023-05-07T06:01:28.704Z,11.19
2023-05-07T06:16:28.856Z,12.54
2023-05-07T06:31:28.997Z,13.23
2023-05-07T06:46:29.075Z,14.51
2023-05-07T07:01:29.284Z,14.45
2023-05-07T07:16:29.222Z,15.19
2023-05-07T07:31:29.483Z,15.49
2023-05-07T07:46:29.790Z,15.93
2023-05-07T08:01:29.974Z,17.18
2023-05-07T08:16:31.094Z,18.07
2023-05-07T08:31:31.451Z,18.62
2023-05-07T08:46:31.507Z,18.84
2023-05-07T09:01:31.586Z,19.10
2023-05-07T09:16:31.991Z,19.78
2023-05-07T09:31:32.064Z,19.11
2023-05-07T09:46:33.575Z,19.39
2023-05-07T10:01:34.313Z,18.45
2023-05-07T10:16:34.469Z,18.12
2023-05-07T10:31:35.138Z,17.92
2023-05-07T10:46:36.288Z,17.31
2023-05-07T11:01:37.529Z,18.02
2023-05-07T11:16:38.311Z,18.75
2023-05-07T11:31:38.649Z,18.39
2023-05-07T11:46:39.465Z,19.22
2023-05-07T12:01:39.622Z,20.74
2023-05-07T12:16:39.596Z,20.72
2023-05-07T12:31:40.247Z,21.37
2023-05-07T12:46:39.992Z,20.55
2023-05-07T13:01:40.480Z,21.25
2023-05-07T13:16:40.755Z,22.45
2023-05-07T13:31:40.997Z,23.36
2023-05-07T13:46:41.265Z,22.73
2023-05-07T14:01:41.542Z,21.12
2023-05-07T14:16:42.303Z,21.83
2023-05-07T14:31:42.445Z,22.57
2023-05-07T14:46:42.767Z,22.18
2023-05-07T15:01:42.850Z,22.85
2023-05-07T15:16:43.086Z,23.66
2023-05-07T15:31:43.903Z,23.38
2023-05-07T15:46:43.978Z,23.28
2023-05-07T16:01:44.013Z,22.55
2023-05-07T16:16:44.392Z,21.65
2023-05-07T16:31:44.197Z,21.56
2023-05-07T16:46:44.661Z,19.41
2023-05-07T17:01:44.876Z,17.62
2023-05-07T17:16:45.121Z,16.64
2023-05-07T17:31:45.037Z,15.62
2023-05-07T17:46:45.368Z,14.77
2023-05-07T18:01:45.643Z,14.09
2023-05-07T18:16:45.985Z,13.55
2023-05-07T18:31:46.129Z,13.17
2023-05-07T18:46:46.018Z,12.75
2023-05-07T19:01:46.776Z,12.64
2023-05-07T19:16:47.556Z,11.76
2023-05-07T19:31:47.603Z,11.44
2023-05-07T19:46:47.745Z,11.32
2023-05-07T20:01:47.802Z,10.82
2023-05-07T20:16:48.678Z,10.33
2023-05-07T20:31:49.223Z,9.93
2023-05-07T20:46:49.374Z,9.50
2023-05-07T21:01:50.128Z,8.95
2023-05-07T21:16:51.734Z,8.34
2023-05-07T21:31:52.382Z,8.16
2023-05-07T21:46:52.512Z,8.43
2023-05-07T22:01:52.922Z,8.77
2023-05-07T22:16:53.816Z,8.59
2023-05-07T22:31:54.366Z,8.38
2023-05-07T22:46:54.425Z,8.18
2023-05-07T23:01:55.973Z,8.12
2023-05-07T23:16:56.318Z,7.58
2023-05-07T23:31:56.800Z,7.02
2023-05-07T23:46:57.171Z,6.70
